sensor_id;sensor_type;location;lat;lon;timestamp;P1;durP1;ratioP1;P2;durP2;ratioP2
6549;SDS011;15142;48.888;9.134;2022-11-15T00:00:09;4.80;;;4.00;;
6549;SDS011;15142;48.888;9.134;2022-11-15T00:02:55;16.00;;;4.57;;
6549;SDS011;15142;48.888;9.134;2022-11-15T00:05:42;4.23;;;3.83;;
6549;SDS011;15142;48.888;9.134;2022-11-15T00:08:28;3.90;;;2.83;;
6549;SDS011;15142;48.888;9.134;2022-11-15T00:11:15;4.13;;;3.73;;
6549;SDS011;15142;48.888;9.134;2022-11-15T00:14:00;4.27;;;3.40;;
6549;SDS011;15142;48.888;9.134;2022-11-15T00:16:46;6.33;;;3.63;;
6549;SDS011;15142;48.888;9.134;2022-11-15T00:19:31;5.43;;;3.53;;
6549;SDS011;15142;48.888;9.134;2022-11-15T00:22:18;5.80;;;3.53;;
6549;SDS011;15142;48.888;9.134;2022-11-15T00:25:03;7.93;;;2.70;;
6549;SDS011;15142;48.888;9.134;2022-11-15T00:27:49;6.30;;;2.83;;
6549;SDS011;15142;48.888;9.134;2022-11-15T00:30:35;5.23;;;3.10;;
6549;SDS011;15142;48.888;9.134;2022-11-15T00:33:20;2.40;;;2.23;;
6549;SDS011;15142;48.888;9.134;2022-11-15T00:36:06;2.77;;;2.17;;
6549;SDS011;15142;48.888;9.134;2022-11-15T00:38:55;4.10;;;2.63;;
6549;SDS011;15142;48.888;9.134;2022-11-15T00:41:40;4.63;;;2.60;;
6549;SDS011;15142;48.888;9.134;2022-11-15T00:44:25;2.77;;;2.47;;
6549;SDS011;15142;48.888;9.134;2022-11-15T00:47:10;2.43;;;1.87;;
6549;SDS011;15142;48.888;9.134;2022-11-15T00:49:55;6.60;;;2.53;;
6549;SDS011;15142;48.888;9.134;2022-11-15T00:52:41;2.67;;;2.40;;
6549;SDS011;15142;48.888;9.134;2022-11-15T00:55:27;5.50;;;2.30;;
6549;SDS011;15142;48.888;9.134;2022-11-15T00:58:12;2.73;;;2.30;;
6549;SDS011;15142;48.888;9.134;2022-11-15T01:01:04;4.37;;;2.07;;
6549;SDS011;15142;48.888;9.134;2022-11-15T01:03:50;1.87;;;1.77;;
6549;SDS011;15142;48.888;9.134;2022-11-15T01:06:35;2.03;;;1.80;;
6549;SDS011;15142;48.888;9.134;2022-11-15T01:09:20;3.70;;;2.50;;
6549;SDS011;15142;48.888;9.134;2022-11-15T01:12:07;5.87;;;3.30;;
6549;SDS011;15142;48.888;9.134;2022-11-15T01:14:52;3.53;;;1.93;;
6549;SDS011;15142;48.888;9.134;2022-11-15T01:17:37;3.30;;;3.00;;
6549;SDS011;15142;48.888;9.134;2022-11-15T01:20:22;2.90;;;2.50;;
6549;SDS011;15142;48.888;9.134;2022-11-15T01:23:07;10.23;;;2.27;;
6549;SDS011;15142;48.888;9.134;2022-11-15T01:25:52;4.67;;;2.00;;
6549;SDS011;15142;48.888;9.134;2022-11-15T01:28:44;3.77;;;2.33;;
6549;SDS011;15142;48.888;9.134;2022-11-15T01:31:29;12.87;;;2.70;;
6549;SDS011;15142;48.888;9.134;2022-11-15T01:34:14;8.10;;;2.10;;
6549;SDS011;15142;48.888;9.134;2022-11-15T01:37:00;2.80;;;2.40;;
6549;SDS011;15142;48.888;9.134;2022-11-15T01:39:44;2.10;;;1.90;;
6549;SDS011;15142;48.888;9.134;2022-11-15T01:42:30;3.17;;;2.40;;
6549;SDS011;15142;48.888;9.134;2022-11-15T01:45:16;3.27;;;2.70;;
6549;SDS011;15142;48.888;9.134;2022-11-15T01:48:01;2.50;;;2.40;;
6549;SDS011;15142;48.888;9.134;2022-11-15T01:50:47;1.90;;;1.80;;
6549;SDS011;15142;48.888;9.134;2022-11-15T01:53:33;1.97;;;1.80;;
6549;SDS011;15142;48.888;9.134;2022-11-15T01:56:21;3.53;;;1.83;;
6549;SDS011;15142;48.888;9.134;2022-11-15T01:59:12;5.30;;;1.90;;
6549;SDS011;15142;48.888;9.134;2022-11-15T02:01:59;3.07;;;2.40;;
6549;SDS011;15142;48.888;9.134;2022-11-15T02:04:45;2.70;;;2.20;;
6549;SDS011;15142;48.888;9.134;2022-11-15T02:07:31;2.60;;;2.37;;
6549;SDS011;15142;48.888;9.134;2022-11-15T02:10:19;2.57;;;2.37;;
6549;SDS011;15142;48.888;9.134;2022-11-15T02:13:06;2.73;;;2.40;;
6549;SDS011;15142;48.888;9.134;2022-11-15T02:15:52;3.87;;;2.50;;
6549;SDS011;15142;48.888;9.134;2022-11-15T02:22:24;3.50;;;2.67;;
6549;SDS011;15142;48.888;9.134;2022-11-15T02:25:26;2.60;;;2.40;;
6549;SDS011;15142;48.888;9.134;2022-11-15T02:28:28;2.40;;;2.20;;
6549;SDS011;15142;48.888;9.134;2022-11-15T02:31:29;2.37;;;2.20;;
6549;SDS011;15142;48.888;9.134;2022-11-15T02:34:24;2.13;;;1.80;;
6549;SDS011;15142;48.888;9.134;2022-11-15T02:37:17;2.47;;;2.30;;
6549;SDS011;15142;48.888;9.134;2022-11-15T02:40:12;3.53;;;2.90;;
6549;SDS011;15142;48.888;9.134;2022-11-15T02:43:08;5.00;;;2.07;;
6549;SDS011;15142;48.888;9.134;2022-11-15T02:46:14;4.53;;;2.40;;
6549;SDS011;15142;48.888;9.134;2022-11-15T02:49:06;4.40;;;2.30;;
6549;SDS011;15142;48.888;9.134;2022-11-15T02:51:52;2.37;;;2.17;;
6549;SDS011;15142;48.888;9.134;2022-11-15T02:54:38;4.10;;;2.60;;
6549;SDS011;15142;48.888;9.134;2022-11-15T02:57:25;2.40;;;2.20;;
6549;SDS011;15142;48.888;9.134;2022-11-15T03:00:17;2.30;;;2.13;;
6549;SDS011;15142;48.888;9.134;2022-11-15T03:03:11;2.50;;;2.40;;
6549;SDS011;15142;48.888;9.134;2022-11-15T03:06:09;4.83;;;2.53;;
6549;SDS011;15142;48.888;9.134;2022-11-15T03:09:07;6.50;;;4.00;;
6549;SDS011;15142;48.888;9.134;2022-11-15T03:11:59;5.10;;;3.53;;
6549;SDS011;15142;48.888;9.134;2022-11-15T03:14:50;4.40;;;2.30;;
6549;SDS011;15142;48.888;9.134;2022-11-15T03:17:43;10.07;;;3.47;;
6549;SDS011;15142;48.888;9.134;2022-11-15T03:20:32;7.80;;;2.50;;
6549;SDS011;15142;48.888;9.134;2022-11-15T03:23:22;6.27;;;3.27;;
6549;SDS011;15142;48.888;9.134;2022-11-15T03:26:09;8.20;;;3.47;;
6549;SDS011;15142;48.888;9.134;2022-11-15T03:28:58;5.30;;;3.90;;
6549;SDS011;15142;48.888;9.134;2022-11-15T03:31:47;9.10;;;2.73;;
6549;SDS011;15142;48.888;9.134;2022-11-15T03:34:37;5.93;;;2.70;;
6549;SDS011;15142;48.888;9.134;2022-11-15T03:37:27;4.40;;;3.37;;
6549;SDS011;15142;48.888;9.134;2022-11-15T03:40:19;3.37;;;2.80;;
6549;SDS011;15142;48.888;9.134;2022-11-15T03:43:11;3.73;;;2.57;;
6549;SDS011;15142;48.888;9.134;2022-11-15T03:46:05;4.20;;;2.67;;
6549;SDS011;15142;48.888;9.134;2022-11-15T03:48:54;6.90;;;3.33;;
6549;SDS011;15142;48.888;9.134;2022-11-15T03:51:45;3.10;;;2.80;;
6549;SDS011;15142;48.888;9.134;2022-11-15T03:54:31;4.50;;;3.17;;
6549;SDS011;15142;48.888;9.134;2022-11-15T03:57:17;4.03;;;3.63;;
6549;SDS011;15142;48.888;9.134;2022-11-15T04:00:03;3.73;;;2.77;;
6549;SDS011;15142;48.888;9.134;2022-11-15T04:02:49;5.20;;;3.80;;
6549;SDS011;15142;48.888;9.134;2022-11-15T04:05:34;5.10;;;3.10;;
6549;SDS011;15142;48.888;9.134;2022-11-15T04:08:20;4.83;;;3.50;;
6549;SDS011;15142;48.888;9.134;2022-11-15T04:11:05;8.73;;;4.57;;
6549;SDS011;15142;48.888;9.134;2022-11-15T04:13:53;5.53;;;3.83;;
6549;SDS011;15142;48.888;9.134;2022-11-15T04:16:38;5.07;;;4.07;;
6549;SDS011;15142;48.888;9.134;2022-11-15T04:19:23;6.93;;;3.87;;
6549;SDS011;15142;48.888;9.134;2022-11-15T04:22:26;4.00;;;3.70;;
6549;SDS011;15142;48.888;9.134;2022-11-15T04:25:30;7.73;;;3.30;;
6549;SDS011;15142;48.888;9.134;2022-11-15T04:28:15;11.50;;;4.07;;
6549;SDS011;15142;48.888;9.134;2022-11-15T04:31:01;8.77;;;4.60;;
6549;SDS011;15142;48.888;9.134;2022-11-15T04:33:47;8.60;;;3.60;;
6549;SDS011;15142;48.888;9.134;2022-11-15T04:36:32;6.40;;;4.23;;
6549;SDS011;15142;48.888;9.134;2022-11-15T04:39:35;6.10;;;4.00;;
6549;SDS011;15142;48.888;9.134;2022-11-15T04:42:21;7.07;;;3.50;;
6549;SDS011;15142;48.888;9.134;2022-11-15T04:45:06;8.20;;;3.63;;
6549;SDS011;15142;48.888;9.134;2022-11-15T04:47:53;7.80;;;3.87;;
6549;SDS011;15142;48.888;9.134;2022-11-15T04:50:39;6.90;;;4.00;;
6549;SDS011;15142;48.888;9.134;2022-11-15T04:53:24;10.47;;;4.73;;
6549;SDS011;15142;48.888;9.134;2022-11-15T04:56:09;7.10;;;3.77;;
6549;SDS011;15142;48.888;9.134;2022-11-15T04:58:54;9.67;;;3.27;;
6549;SDS011;15142;48.888;9.134;2022-11-15T05:01:39;7.60;;;3.80;;
6549;SDS011;15142;48.888;9.134;2022-11-15T05:04:26;6.60;;;3.77;;
6549;SDS011;15142;48.888;9.134;2022-11-15T05:07:10;4.90;;;3.60;;
6549;SDS011;15142;48.888;9.134;2022-11-15T05:09:56;6.60;;;3.77;;
6549;SDS011;15142;48.888;9.134;2022-11-15T05:12:41;6.60;;;3.00;;
6549;SDS011;15142;48.888;9.134;2022-11-15T05:15:27;5.60;;;4.30;;
6549;SDS011;15142;48.888;9.134;2022-11-15T05:18:12;8.33;;;3.70;;
6549;SDS011;15142;48.888;9.134;2022-11-15T05:21:03;8.10;;;4.77;;
6549;SDS011;15142;48.888;9.134;2022-11-15T05:23:49;9.53;;;4.40;;
6549;SDS011;15142;48.888;9.134;2022-11-15T05:26:35;5.50;;;2.70;;
6549;SDS011;15142;48.888;9.134;2022-11-15T05:29:20;6.80;;;3.27;;
6549;SDS011;15142;48.888;9.134;2022-11-15T05:32:06;3.60;;;2.93;;
6549;SDS011;15142;48.888;9.134;2022-11-15T05:34:53;5.03;;;3.20;;
6549;SDS011;15142;48.888;9.134;2022-11-15T05:37:41;3.70;;;2.90;;
6549;SDS011;15142;48.888;9.134;2022-11-15T05:40:26;7.00;;;3.60;;
6549;SDS011;15142;48.888;9.134;2022-11-15T05:43:13;5.17;;;3.50;;
6549;SDS011;15142;48.888;9.134;2022-11-15T05:45:59;6.93;;;3.03;;
6549;SDS011;15142;48.888;9.134;2022-11-15T05:48:47;6.53;;;3.77;;
6549;SDS011;15142;48.888;9.134;2022-11-15T05:51:36;8.80;;;3.70;;
6549;SDS011;15142;48.888;9.134;2022-11-15T05:54:23;5.13;;;3.40;;
6549;SDS011;15142;48.888;9.134;2022-11-15T05:57:09;11.70;;;3.40;;
6549;SDS011;15142;48.888;9.134;2022-11-15T05:59:55;5.50;;;3.17;;
6549;SDS011;15142;48.888;9.134;2022-11-15T06:02:41;3.87;;;2.50;;
6549;SDS011;15142;48.888;9.134;2022-11-15T06:05:26;8.13;;;3.20;;
6549;SDS011;15142;48.888;9.134;2022-11-15T06:08:12;4.20;;;3.30;;
6549;SDS011;15142;48.888;9.134;2022-11-15T06:11:03;8.43;;;3.73;;
6549;SDS011;15142;48.888;9.134;2022-11-15T06:13:49;6.37;;;3.63;;
6549;SDS011;15142;48.888;9.134;2022-11-15T06:16:34;6.23;;;3.37;;
6549;SDS011;15142;48.888;9.134;2022-11-15T06:19:20;3.30;;;3.00;;
6549;SDS011;15142;48.888;9.134;2022-11-15T06:22:05;5.77;;;4.40;;
6549;SDS011;15142;48.888;9.134;2022-11-15T06:24:50;4.40;;;3.00;;
6549;SDS011;15142;48.888;9.134;2022-11-15T06:27:37;4.67;;;3.73;;
6549;SDS011;15142;48.888;9.134;2022-11-15T06:30:23;3.67;;;3.30;;
6549;SDS011;15142;48.888;9.134;2022-11-15T06:33:09;5.47;;;4.47;;
6549;SDS011;15142;48.888;9.134;2022-11-15T06:35:54;4.90;;;4.23;;
6549;SDS011;15142;48.888;9.134;2022-11-15T06:38:39;6.80;;;4.50;;
6549;SDS011;15142;48.888;9.134;2022-11-15T06:41:25;6.50;;;4.67;;
6549;SDS011;15142;48.888;9.134;2022-11-15T06:44:11;3.97;;;3.43;;
6549;SDS011;15142;48.888;9.134;2022-11-15T06:46:56;5.30;;;3.00;;
6549;SDS011;15142;48.888;9.134;2022-11-15T06:49:42;5.33;;;4.03;;
6549;SDS011;15142;48.888;9.134;2022-11-15T06:52:27;11.93;;;3.40;;
6549;SDS011;15142;48.888;9.134;2022-11-15T06:55:16;6.67;;;4.07;;
6549;SDS011;15142;48.888;9.134;2022-11-15T06:58:01;8.17;;;4.80;;
6549;SDS011;15142;48.888;9.134;2022-11-15T07:00:48;3.43;;;3.10;;
6549;SDS011;15142;48.888;9.134;2022-11-15T07:03:34;5.93;;;4.07;;
6549;SDS011;15142;48.888;9.134;2022-11-15T07:06:20;6.67;;;3.23;;
6549;SDS011;15142;48.888;9.134;2022-11-15T07:09:05;4.00;;;3.60;;
6549;SDS011;15142;48.888;9.134;2022-11-15T07:11:51;4.57;;;3.47;;
6549;SDS011;15142;48.888;9.134;2022-11-15T07:14:36;5.23;;;4.27;;
6549;SDS011;15142;48.888;9.134;2022-11-15T07:17:22;8.43;;;4.13;;
6549;SDS011;15142;48.888;9.134;2022-11-15T07:20:08;8.10;;;4.03;;
6549;SDS011;15142;48.888;9.134;2022-11-15T07:22:59;5.23;;;3.90;;
6549;SDS011;15142;48.888;9.134;2022-11-15T07:25:46;6.47;;;4.00;;
6549;SDS011;15142;48.888;9.134;2022-11-15T07:28:31;5.90;;;4.30;;
6549;SDS011;15142;48.888;9.134;2022-11-15T07:31:16;7.50;;;4.10;;
6549;SDS011;15142;48.888;9.134;2022-11-15T07:34:03;5.17;;;4.00;;
6549;SDS011;15142;48.888;9.134;2022-11-15T07:36:48;5.43;;;3.10;;
6549;SDS011;15142;48.888;9.134;2022-11-15T07:39:33;3.70;;;3.30;;
6549;SDS011;15142;48.888;9.134;2022-11-15T07:42:18;3.00;;;2.80;;
6549;SDS011;15142;48.888;9.134;2022-11-15T07:45:22;5.23;;;3.93;;
6549;SDS011;15142;48.888;9.134;2022-11-15T07:48:09;9.40;;;3.40;;
6549;SDS011;15142;48.888;9.134;2022-11-15T07:50:56;8.20;;;3.20;;
6549;SDS011;15142;48.888;9.134;2022-11-15T07:53:42;10.93;;;4.00;;
6549;SDS011;15142;48.888;9.134;2022-11-15T07:56:27;16.63;;;3.33;;
6549;SDS011;15142;48.888;9.134;2022-11-15T07:59:13;6.97;;;3.40;;
6549;SDS011;15142;48.888;9.134;2022-11-15T08:01:58;7.93;;;4.10;;
6549;SDS011;15142;48.888;9.134;2022-11-15T08:04:44;6.17;;;3.43;;
6549;SDS011;15142;48.888;9.134;2022-11-15T08:07:30;7.70;;;4.13;;
6549;SDS011;15142;48.888;9.134;2022-11-15T08:10:16;13.87;;;4.60;;
6549;SDS011;15142;48.888;9.134;2022-11-15T08:13:04;12.73;;;4.37;;
6549;SDS011;15142;48.888;9.134;2022-11-15T08:15:51;7.60;;;4.20;;
6549;SDS011;15142;48.888;9.134;2022-11-15T08:18:36;6.13;;;3.90;;
6549;SDS011;15142;48.888;9.134;2022-11-15T08:21:21;4.80;;;3.50;;
6549;SDS011;15142;48.888;9.134;2022-11-15T08:24:09;3.90;;;3.17;;
6549;SDS011;15142;48.888;9.134;2022-11-15T08:26:55;8.50;;;3.50;;
6549;SDS011;15142;48.888;9.134;2022-11-15T08:29:40;5.50;;;3.00;;
6549;SDS011;15142;48.888;9.134;2022-11-15T08:32:27;5.13;;;3.47;;
6549;SDS011;15142;48.888;9.134;2022-11-15T08:35:12;4.53;;;3.07;;
6549;SDS011;15142;48.888;9.134;2022-11-15T08:37:57;6.13;;;3.83;;
6549;SDS011;15142;48.888;9.134;2022-11-15T08:40:44;8.37;;;3.60;;
6549;SDS011;15142;48.888;9.134;2022-11-15T08:43:30;8.70;;;4.47;;
6549;SDS011;15142;48.888;9.134;2022-11-15T08:46:15;6.70;;;3.67;;
6549;SDS011;15142;48.888;9.134;2022-11-15T08:49:01;5.67;;;3.70;;
6549;SDS011;15142;48.888;9.134;2022-11-15T08:51:47;10.90;;;4.43;;
6549;SDS011;15142;48.888;9.134;2022-11-15T08:54:32;4.70;;;3.83;;
6549;SDS011;15142;48.888;9.134;2022-11-15T08:57:18;11.43;;;4.10;;
6549;SDS011;15142;48.888;9.134;2022-11-15T09:00:04;5.40;;;3.37;;
6549;SDS011;15142;48.888;9.134;2022-11-15T09:02:50;6.57;;;3.90;;
6549;SDS011;15142;48.888;9.134;2022-11-15T09:05:36;8.13;;;4.30;;
6549;SDS011;15142;48.888;9.134;2022-11-15T09:08:21;5.67;;;3.40;;
6549;SDS011;15142;48.888;9.134;2022-11-15T09:11:07;8.50;;;3.43;;
6549;SDS011;15142;48.888;9.134;2022-11-15T09:13:55;7.70;;;3.70;;
6549;SDS011;15142;48.888;9.134;2022-11-15T09:16:41;5.23;;;3.37;;
6549;SDS011;15142;48.888;9.134;2022-11-15T09:19:26;4.67;;;3.70;;
6549;SDS011;15142;48.888;9.134;2022-11-15T09:22:12;7.97;;;4.43;;
6549;SDS011;15142;48.888;9.134;2022-11-15T09:24:57;7.20;;;5.50;;
6549;SDS011;15142;48.888;9.134;2022-11-15T09:27:42;11.30;;;5.10;;
6549;SDS011;15142;48.888;9.134;2022-11-15T09:30:30;6.70;;;4.87;;
6549;SDS011;15142;48.888;9.134;2022-11-15T09:33:15;5.73;;;5.03;;
6549;SDS011;15142;48.888;9.134;2022-11-15T09:36:01;10.43;;;5.90;;
6549;SDS011;15142;48.888;9.134;2022-11-15T09:38:47;10.33;;;5.30;;
6549;SDS011;15142;48.888;9.134;2022-11-15T09:41:36;13.07;;;6.40;;
6549;SDS011;15142;48.888;9.134;2022-11-15T09:44:39;10.87;;;5.67;;
6549;SDS011;15142;48.888;9.134;2022-11-15T09:50:50;4.23;;;3.80;;
6549;SDS011;15142;48.888;9.134;2022-11-15T09:53:25;7.07;;;5.07;;
6549;SDS011;15142;48.888;9.134;2022-11-15T09:55:57;8.30;;;5.03;;
6549;SDS011;15142;48.888;9.134;2022-11-15T09:58:28;5.90;;;3.57;;
6549;SDS011;15142;48.888;9.134;2022-11-15T10:01:03;11.93;;;4.80;;
6549;SDS011;15142;48.888;9.134;2022-11-15T10:03:33;8.47;;;3.57;;
6549;SDS011;15142;48.888;9.134;2022-11-15T10:06:03;6.33;;;4.57;;
6549;SDS011;15142;48.888;9.134;2022-11-15T10:11:20;8.07;;;4.40;;
6549;SDS011;15142;48.888;9.134;2022-11-15T10:13:51;7.80;;;4.33;;
6549;SDS011;15142;48.888;9.134;2022-11-15T10:16:26;13.40;;;4.73;;
6549;SDS011;15142;48.888;9.134;2022-11-15T10:19:12;10.23;;;4.70;;
6549;SDS011;15142;48.888;9.134;2022-11-15T10:21:50;11.00;;;4.60;;
6549;SDS011;15142;48.888;9.134;2022-11-15T10:24:26;8.10;;;3.77;;
6549;SDS011;15142;48.888;9.134;2022-11-15T10:26:54;6.20;;;4.27;;
6549;SDS011;15142;48.888;9.134;2022-11-15T10:29:22;7.17;;;4.63;;
6549;SDS011;15142;48.888;9.134;2022-11-15T10:31:50;11.03;;;5.00;;
6549;SDS011;15142;48.888;9.134;2022-11-15T10:34:18;7.23;;;4.83;;
6549;SDS011;15142;48.888;9.134;2022-11-15T10:36:47;7.07;;;4.83;;
6549;SDS011;15142;48.888;9.134;2022-11-15T10:39:22;8.20;;;3.87;;
6549;SDS011;15142;48.888;9.134;2022-11-15T10:41:50;8.43;;;4.30;;
6549;SDS011;15142;48.888;9.134;2022-11-15T10:44:21;6.77;;;3.50;;
6549;SDS011;15142;48.888;9.134;2022-11-15T10:49:54;8.93;;;4.00;;
6549;SDS011;15142;48.888;9.134;2022-11-15T10:52:26;7.70;;;5.00;;
6549;SDS011;15142;48.888;9.134;2022-11-15T10:54:55;9.93;;;5.10;;
6549;SDS011;15142;48.888;9.134;2022-11-15T10:57:26;9.27;;;4.30;;
6549;SDS011;15142;48.888;9.134;2022-11-15T10:59:55;7.87;;;3.77;;
6549;SDS011;15142;48.888;9.134;2022-11-15T11:02:26;6.20;;;3.90;;
6549;SDS011;15142;48.888;9.134;2022-11-15T11:04:55;7.27;;;4.10;;
6549;SDS011;15142;48.888;9.134;2022-11-15T11:07:24;8.70;;;4.60;;
6549;SDS011;15142;48.888;9.134;2022-11-15T11:10:02;5.60;;;3.63;;
6549;SDS011;15142;48.888;9.134;2022-11-15T11:12:32;11.03;;;4.57;;
6549;SDS011;15142;48.888;9.134;2022-11-15T11:15:00;6.57;;;4.30;;
6549;SDS011;15142;48.888;9.134;2022-11-15T11:17:39;3.77;;;3.03;;
6549;SDS011;15142;48.888;9.134;2022-11-15T11:20:18;7.73;;;4.37;;
6549;SDS011;15142;48.888;9.134;2022-11-15T11:22:58;13.07;;;5.70;;
6549;SDS011;15142;48.888;9.134;2022-11-15T11:25:32;11.10;;;5.00;;
6549;SDS011;15142;48.888;9.134;2022-11-15T11:28:13;6.90;;;4.50;;
6549;SDS011;15142;48.888;9.134;2022-11-15T11:30:51;9.03;;;5.63;;
6549;SDS011;15142;48.888;9.134;2022-11-15T11:33:27;11.83;;;5.50;;
6549;SDS011;15142;48.888;9.134;2022-11-15T11:36:01;8.03;;;4.60;;
6549;SDS011;15142;48.888;9.134;2022-11-15T11:38:39;10.87;;;4.83;;
6549;SDS011;15142;48.888;9.134;2022-11-15T11:41:18;9.17;;;5.07;;
6549;SDS011;15142;48.888;9.134;2022-11-15T11:43:57;10.00;;;5.03;;
6549;SDS011;15142;48.888;9.134;2022-11-15T11:46:40;9.13;;;4.73;;
6549;SDS011;15142;48.888;9.134;2022-11-15T11:49:15;6.90;;;4.90;;
6549;SDS011;15142;48.888;9.134;2022-11-15T11:51:47;14.83;;;5.70;;
6549;SDS011;15142;48.888;9.134;2022-11-15T11:54:20;8.77;;;5.17;;
6549;SDS011;15142;48.888;9.134;2022-11-15T11:56:52;7.57;;;4.60;;
6549;SDS011;15142;48.888;9.134;2022-11-15T11:59:25;8.23;;;4.80;;
6549;SDS011;15142;48.888;9.134;2022-11-15T12:01:59;14.73;;;4.93;;
6549;SDS011;15142;48.888;9.134;2022-11-15T12:04:29;9.73;;;7.77;;
6549;SDS011;15142;48.888;9.134;2022-11-15T12:07:00;7.10;;;4.83;;
6549;SDS011;15142;48.888;9.134;2022-11-15T12:09:32;7.53;;;4.67;;
6549;SDS011;15142;48.888;9.134;2022-11-15T12:12:06;23.27;;;5.10;;
6549;SDS011;15142;48.888;9.134;2022-11-15T12:14:39;7.93;;;5.13;;
6549;SDS011;15142;48.888;9.134;2022-11-15T12:17:10;8.80;;;4.57;;
6549;SDS011;15142;48.888;9.134;2022-11-15T12:19:37;9.17;;;4.87;;
6549;SDS011;15142;48.888;9.134;2022-11-15T12:22:08;19.07;;;5.13;;
6549;SDS011;15142;48.888;9.134;2022-11-15T12:24:41;9.10;;;4.90;;
6549;SDS011;15142;48.888;9.134;2022-11-15T12:27:15;11.03;;;4.80;;
6549;SDS011;15142;48.888;9.134;2022-11-15T12:29:46;7.03;;;4.57;;
6549;SDS011;15142;48.888;9.134;2022-11-15T12:32:21;13.10;;;4.63;;
6549;SDS011;15142;48.888;9.134;2022-11-15T12:34:53;12.80;;;4.93;;
6549;SDS011;15142;48.888;9.134;2022-11-15T12:37:33;5.67;;;3.93;;
6549;SDS011;15142;48.888;9.134;2022-11-15T12:40:29;13.27;;;5.13;;
6549;SDS011;15142;48.888;9.134;2022-11-15T12:45:56;5.97;;;4.27;;
6549;SDS011;15142;48.888;9.134;2022-11-15T12:57:30;9.47;;;4.83;;
6549;SDS011;15142;48.888;9.134;2022-11-15T13:00:16;7.17;;;4.20;;
6549;SDS011;15142;48.888;9.134;2022-11-15T13:03:18;6.40;;;4.00;;
6549;SDS011;15142;48.888;9.134;2022-11-15T13:05:53;7.93;;;4.60;;
6549;SDS011;15142;48.888;9.134;2022-11-15T13:08:40;8.50;;;4.23;;
6549;SDS011;15142;48.888;9.134;2022-11-15T13:17:24;7.27;;;4.40;;
6549;SDS011;15142;48.888;9.134;2022-11-15T13:19:55;11.80;;;5.17;;
6549;SDS011;15142;48.888;9.134;2022-11-15T13:22:25;9.80;;;4.50;;
6549;SDS011;15142;48.888;9.134;2022-11-15T13:25:17;6.87;;;4.70;;
6549;SDS011;15142;48.888;9.134;2022-11-15T13:27:47;10.23;;;3.97;;
6549;SDS011;15142;48.888;9.134;2022-11-15T13:30:19;8.13;;;4.70;;
6549;SDS011;15142;48.888;9.134;2022-11-15T13:32:47;5.57;;;4.03;;
6549;SDS011;15142;48.888;9.134;2022-11-15T13:35:20;6.90;;;5.13;;
6549;SDS011;15142;48.888;9.134;2022-11-15T13:37:49;10.37;;;4.80;;
6549;SDS011;15142;48.888;9.134;2022-11-15T13:40:19;11.47;;;4.73;;
6549;SDS011;15142;48.888;9.134;2022-11-15T13:42:52;12.37;;;5.13;;
6549;SDS011;15142;48.888;9.134;2022-11-15T13:45:20;13.93;;;5.27;;
6549;SDS011;15142;48.888;9.134;2022-11-15T13:47:54;14.00;;;4.87;;
6549;SDS011;15142;48.888;9.134;2022-11-15T13:50:24;13.10;;;5.13;;
6549;SDS011;15142;48.888;9.134;2022-11-15T13:52:55;10.53;;;5.10;;
6549;SDS011;15142;48.888;9.134;2022-11-15T13:55:24;8.20;;;5.53;;
6549;SDS011;15142;48.888;9.134;2022-11-15T13:57:52;10.17;;;5.47;;
6549;SDS011;15142;48.888;9.134;2022-11-15T14:00:25;8.97;;;6.80;;
6549;SDS011;15142;48.888;9.134;2022-11-15T14:02:55;13.20;;;5.50;;
6549;SDS011;15142;48.888;9.134;2022-11-15T14:05:25;7.60;;;4.23;;
6549;SDS011;15142;48.888;9.134;2022-11-15T14:07:52;17.60;;;5.50;;
6549;SDS011;15142;48.888;9.134;2022-11-15T14:10:25;21.43;;;6.10;;
6549;SDS011;15142;48.888;9.134;2022-11-15T14:12:55;9.80;;;6.70;;
6549;SDS011;15142;48.888;9.134;2022-11-15T14:15:27;8.50;;;5.13;;
6549;SDS011;15142;48.888;9.134;2022-11-15T14:17:56;12.37;;;5.93;;
6549;SDS011;15142;48.888;9.134;2022-11-15T14:20:30;10.03;;;5.50;;
6549;SDS011;15142;48.888;9.134;2022-11-15T14:22:58;20.27;;;5.13;;
6549;SDS011;15142;48.888;9.134;2022-11-15T14:25:27;11.57;;;6.80;;
6549;SDS011;15142;48.888;9.134;2022-11-15T14:30:56;7.10;;;4.87;;
6549;SDS011;15142;48.888;9.134;2022-11-15T14:33:25;14.80;;;5.80;;
6549;SDS011;15142;48.888;9.134;2022-11-15T14:35:56;16.40;;;6.57;;
6549;SDS011;15142;48.888;9.134;2022-11-15T14:38:24;13.18;;;6.65;;
6549;SDS011;15142;48.888;9.134;2022-11-15T14:40:52;12.13;;;6.10;;
6549;SDS011;15142;48.888;9.134;2022-11-15T14:43:21;20.50;;;6.97;;
6549;SDS011;15142;48.888;9.134;2022-11-15T14:45:48;8.10;;;5.60;;
6549;SDS011;15142;48.888;9.134;2022-11-15T14:48:15;11.07;;;6.17;;
6549;SDS011;15142;48.888;9.134;2022-11-15T14:50:41;11.60;;;5.57;;
6549;SDS011;15142;48.888;9.134;2022-11-15T14:53:12;11.10;;;5.97;;
6549;SDS011;15142;48.888;9.134;2022-11-15T14:55:41;13.40;;;6.70;;
6549;SDS011;15142;48.888;9.134;2022-11-15T14:58:08;9.80;;;5.70;;
6549;SDS011;15142;48.888;9.134;2022-11-15T15:00:35;18.87;;;6.50;;
6549;SDS011;15142;48.888;9.134;2022-11-15T15:03:04;11.63;;;5.73;;
6549;SDS011;15142;48.888;9.134;2022-11-15T15:05:32;11.83;;;7.07;;
6549;SDS011;15142;48.888;9.134;2022-11-15T15:08:01;14.90;;;5.90;;
6549;SDS011;15142;48.888;9.134;2022-11-15T15:10:31;11.20;;;5.50;;
6549;SDS011;15142;48.888;9.134;2022-11-15T15:13:00;10.03;;;5.63;;
6549;SDS011;15142;48.888;9.134;2022-11-15T15:15:29;11.10;;;5.70;;
6549;SDS011;15142;48.888;9.134;2022-11-15T15:17:59;11.53;;;5.50;;
6549;SDS011;15142;48.888;9.134;2022-11-15T15:20:26;10.53;;;4.60;;
6549;SDS011;15142;48.888;9.134;2022-11-15T15:22:54;9.33;;;4.97;;
6549;SDS011;15142;48.888;9.134;2022-11-15T15:25:22;18.83;;;6.10;;
6549;SDS011;15142;48.888;9.134;2022-11-15T15:27:53;7.60;;;4.33;;
6549;SDS011;15142;48.888;9.134;2022-11-15T15:30:20;16.17;;;5.30;;
6549;SDS011;15142;48.888;9.134;2022-11-15T15:32:48;17.13;;;5.27;;
6549;SDS011;15142;48.888;9.134;2022-11-15T15:35:15;6.50;;;5.37;;
6549;SDS011;15142;48.888;9.134;2022-11-15T15:37:43;19.33;;;6.47;;
6549;SDS011;15142;48.888;9.134;2022-11-15T15:40:12;11.93;;;5.97;;
6549;SDS011;15142;48.888;9.134;2022-11-15T15:42:41;11.83;;;7.40;;
6549;SDS011;15142;48.888;9.134;2022-11-15T15:45:10;12.18;;;5.60;;
6549;SDS011;15142;48.888;9.134;2022-11-15T15:47:37;9.80;;;5.43;;
6549;SDS011;15142;48.888;9.134;2022-11-15T15:50:04;9.97;;;5.10;;
6549;SDS011;15142;48.888;9.134;2022-11-15T15:52:42;11.53;;;5.90;;
6549;SDS011;15142;48.888;9.134;2022-11-15T15:57:36;18.13;;;6.53;;
6549;SDS011;15142;48.888;9.134;2022-11-15T16:00:04;11.60;;;4.83;;
6549;SDS011;15142;48.888;9.134;2022-11-15T16:02:38;8.00;;;5.10;;
6549;SDS011;15142;48.888;9.134;2022-11-15T16:05:05;12.50;;;5.57;;
6549;SDS011;15142;48.888;9.134;2022-11-15T16:07:33;12.00;;;5.43;;
6549;SDS011;15142;48.888;9.134;2022-11-15T16:10:00;13.17;;;6.90;;
6549;SDS011;15142;48.888;9.134;2022-11-15T16:12:27;13.53;;;5.80;;
6549;SDS011;15142;48.888;9.134;2022-11-15T16:14:54;5.97;;;5.03;;
6549;SDS011;15142;48.888;9.134;2022-11-15T16:17:22;14.60;;;6.70;;
6549;SDS011;15142;48.888;9.134;2022-11-15T16:19:52;11.33;;;5.43;;
6549;SDS011;15142;48.888;9.134;2022-11-15T16:22:19;24.83;;;6.47;;
6549;SDS011;15142;48.888;9.134;2022-11-15T16:24:46;12.10;;;5.20;;
6549;SDS011;15142;48.888;9.134;2022-11-15T16:27:14;9.40;;;5.83;;
6549;SDS011;15142;48.888;9.134;2022-11-15T16:29:41;6.27;;;5.03;;
6549;SDS011;15142;48.888;9.134;2022-11-15T16:32:08;8.10;;;4.67;;
6549;SDS011;15142;48.888;9.134;2022-11-15T16:34:35;7.43;;;4.80;;
6549;SDS011;15142;48.888;9.134;2022-11-15T16:37:04;3.43;;;3.13;;
6549;SDS011;15142;48.888;9.134;2022-11-15T16:39:31;7.50;;;4.83;;
6549;SDS011;15142;48.888;9.134;2022-11-15T16:41:58;4.00;;;3.60;;
6549;SDS011;15142;48.888;9.134;2022-11-15T16:44:27;5.63;;;3.97;;
6549;SDS011;15142;48.888;9.134;2022-11-15T16:46:54;10.13;;;4.53;;
6549;SDS011;15142;48.888;9.134;2022-11-15T16:49:21;6.13;;;4.27;;
6549;SDS011;15142;48.888;9.134;2022-11-15T16:51:48;5.40;;;4.10;;
6549;SDS011;15142;48.888;9.134;2022-11-15T16:54:17;12.20;;;4.67;;